createdAt,value
2017-10-12T00:00:35.518Z,4.40
2017-10-12T00:03:04.701Z,4.80
2017-10-12T00:05:34.378Z,4.77
2017-10-12T00:08:03.549Z,6.60
2017-10-12T00:10:33.714Z,6.63
2017-10-12T00:13:03.129Z,6.13
2017-10-12T00:15:32.493Z,5.13
2017-10-12T00:18:01.670Z,4.00
2017-10-12T00:20:31.074Z,8.33
2017-10-12T00:23:00.274Z,4.80
2017-10-12T00:25:29.663Z,6.07
2017-10-12T00:28:00.162Z,3.90
2017-10-12T00:30:29.337Z,7.13
2017-10-12T00:32:58.712Z,5.90
2017-10-12T00:35:29.239Z,6.27
2017-10-12T00:37:59.559Z,4.23
2017-10-12T00:40:28.673Z,8.27
2017-10-12T00:42:58.391Z,5.47
2017-10-12T00:45:27.772Z,4.73
2017-10-12T00:47:57.151Z,4.60
2017-10-12T00:50:27.671Z,4.53
2017-10-12T00:52:57.072Z,8.87
2017-10-12T00:55:26.459Z,5.63
2017-10-12T00:57:55.904Z,4.17
2017-10-12T01:00:24.987Z,4.10
2017-10-12T01:02:53.802Z,4.00
2017-10-12T01:05:23.335Z,4.43
2017-10-12T01:07:52.070Z,9.67
2017-10-12T01:10:21.236Z,5.17
2017-10-12T01:12:51.062Z,5.97
2017-10-12T01:15:20.957Z,5.20
2017-10-12T01:17:50.342Z,6.23
2017-10-12T01:20:19.118Z,4.40
2017-10-12T01:22:47.604Z,4.57
2017-10-12T01:25:16.441Z,8.87
2017-10-12T01:27:45.501Z,6.03
2017-10-12T01:30:14.883Z,6.43
2017-10-12T01:32:43.566Z,4.60
2017-10-12T01:35:13.556Z,4.23
2017-10-12T01:37:42.584Z,6.00
2017-10-12T01:40:11.070Z,6.10
2017-10-12T01:42:39.389Z,5.43
2017-10-12T01:45:09.192Z,5.23
2017-10-12T01:47:38.018Z,5.90
2017-10-12T01:50:07.058Z,5.40
2017-10-12T01:52:35.537Z,4.67
2017-10-12T01:55:04.909Z,4.57
2017-10-12T01:57:34.597Z,6.50
2017-10-12T02:00:03.279Z,5.87
2017-10-12T02:02:32.457Z,8.23
2017-10-12T02:05:02.622Z,5.67
2017-10-12T02:07:31.453Z,4.40
2017-10-12T02:10:02.354Z,6.23
2017-10-12T02:12:31.699Z,6.40
2017-10-12T02:15:00.580Z,7.87
2017-10-12T02:17:29.953Z,5.83
2017-10-12T02:19:59.425Z,7.83
2017-10-12T02:22:28.595Z,4.50
2017-10-12T02:24:57.896Z,6.43
2017-10-12T02:27:28.186Z,8.13
2017-10-12T02:29:57.030Z,8.27
2017-10-12T02:32:26.973Z,7.73
2017-10-12T02:34:56.124Z,8.83
2017-10-12T02:37:25.308Z,8.07
2017-10-12T02:39:53.786Z,6.73
2017-10-12T02:42:23.345Z,8.77
2017-10-12T02:44:51.832Z,7.67
2017-10-12T02:47:21.008Z,7.40
2017-10-12T02:49:50.886Z,8.47
2017-10-12T02:52:20.063Z,9.37
2017-10-12T02:54:49.242Z,9.27
2017-10-12T02:57:19.540Z,8.63
2017-10-12T02:59:48.041Z,7.33
2017-10-12T03:02:17.219Z,9.63
2017-10-12T03:04:46.820Z,10.10
2017-10-12T03:07:16.006Z,13.87
2017-10-12T03:09:45.601Z,10.57
2017-10-12T03:12:14.807Z,12.37
2017-10-12T03:14:43.994Z,6.13
2017-10-12T03:17:12.483Z,11.17
2017-10-12T03:19:42.256Z,7.50
2017-10-12T03:22:12.188Z,14.30
2017-10-12T03:24:42.147Z,10.00
2017-10-12T03:27:11.991Z,13.30
2017-10-12T03:29:41.165Z,13.00
2017-10-12T03:32:10.356Z,14.20
2017-10-12T03:34:40.317Z,17.50
2017-10-12T03:37:09.305Z,16.77
2017-10-12T03:39:39.243Z,12.83
2017-10-12T03:42:08.797Z,16.07
2017-10-12T03:44:38.143Z,12.40
2017-10-12T03:47:07.325Z,12.53
2017-10-12T03:49:36.644Z,15.43
2017-10-12T03:52:05.640Z,17.07
2017-10-12T03:54:34.634Z,14.77
2017-10-12T03:57:04.109Z,18.07
2017-10-12T03:59:34.057Z,15.80
2017-10-12T04:02:03.996Z,15.07
2017-10-12T04:04:33.529Z,16.67
2017-10-12T04:07:02.521Z,17.07
2017-10-12T04:09:31.713Z,14.73
2017-10-12T04:12:00.921Z,20.10
2017-10-12T04:14:30.114Z,19.90
2017-10-12T04:17:00.071Z,18.20
2017-10-12T04:19:29.825Z,12.53
2017-10-12T04:22:00.837Z,12.93
2017-10-12T04:24:30.045Z,13.40
2017-10-12T04:26:59.223Z,16.57
2017-10-12T04:29:29.209Z,20.77
2017-10-12T04:31:59.874Z,19.93
2017-10-12T04:34:29.056Z,27.10
2017-10-12T04:36:59.765Z,15.07
2017-10-12T04:39:29.852Z,14.83
2017-10-12T04:41:59.050Z,12.37
2017-10-12T04:44:28.258Z,15.47
2017-10-12T04:46:59.325Z,14.33
2017-10-12T04:49:28.524Z,18.83
2017-10-12T04:51:57.712Z,22.17
2017-10-12T04:54:27.273Z,23.37
2017-10-12T04:56:56.244Z,26.43
2017-10-12T04:59:25.228Z,24.80
2017-10-12T05:01:54.429Z,17.43
2017-10-12T05:04:24.185Z,16.33
2017-10-12T05:06:53.176Z,16.83
2017-10-12T05:09:22.714Z,15.90
2017-10-12T05:11:51.896Z,22.17
2017-10-12T05:14:21.087Z,16.20
2017-10-12T05:16:51.388Z,18.27
2017-10-12T05:19:20.751Z,18.90
2017-10-12T05:21:50.445Z,20.00
2017-10-12T05:24:19.880Z,15.70
2017-10-12T05:26:49.087Z,18.63
2017-10-12T05:29:18.369Z,24.37
2017-10-12T05:31:47.567Z,28.97
2017-10-12T05:34:16.752Z,18.90
2017-10-12T05:36:45.969Z,20.53
2017-10-12T05:39:15.254Z,26.10
2017-10-12T05:41:44.442Z,27.37
2017-10-12T05:44:14.069Z,21.57
2017-10-12T05:46:44.356Z,13.03
2017-10-12T05:49:13.367Z,19.90
2017-10-12T05:51:42.349Z,19.50
2017-10-12T05:54:11.557Z,14.63
2017-10-12T05:56:40.742Z,19.60
2017-10-12T05:59:09.927Z,21.87
2017-10-12T06:01:40.917Z,27.67
2017-10-12T06:04:10.090Z,22.07
2017-10-12T06:06:39.270Z,20.80
2017-10-12T06:09:08.497Z,18.87
2017-10-12T06:11:37.661Z,22.07
2017-10-12T06:14:06.834Z,17.57
2017-10-12T06:16:36.313Z,29.13
2017-10-12T06:19:05.485Z,19.67
2017-10-12T06:21:34.662Z,22.30
2017-10-12T06:24:04.257Z,22.20
2017-10-12T06:26:33.462Z,20.93
2017-10-12T06:29:02.651Z,24.20
2017-10-12T06:31:31.849Z,18.27
2017-10-12T06:34:01.557Z,14.80
2017-10-12T06:36:31.525Z,16.87
2017-10-12T06:39:00.730Z,15.83
2017-10-12T06:41:29.921Z,24.17
2017-10-12T06:44:00.223Z,19.50
2017-10-12T06:46:30.215Z,21.60
2017-10-12T06:48:59.407Z,20.37
2017-10-12T06:51:28.632Z,23.00
2017-10-12T06:53:57.839Z,21.60
2017-10-12T06:56:27.035Z,23.50
2017-10-12T06:58:56.273Z,17.87
2017-10-12T07:01:25.465Z,21.27
2017-10-12T07:03:54.751Z,17.37
2017-10-12T07:06:23.927Z,23.30
2017-10-12T07:08:53.528Z,14.63
2017-10-12T07:11:22.717Z,19.60
2017-10-12T07:13:51.900Z,18.57
2017-10-12T07:16:21.103Z,16.83
2017-10-12T07:18:51.057Z,18.63
2017-10-12T07:21:20.125Z,23.57
2017-10-12T07:23:50.433Z,21.73
2017-10-12T07:26:19.427Z,16.07
2017-10-12T07:28:48.425Z,20.37
2017-10-12T07:31:17.622Z,20.63
2017-10-12T07:33:46.801Z,16.87
2017-10-12T07:36:15.991Z,19.13
2017-10-12T07:38:45.473Z,21.50
2017-10-12T07:41:14.651Z,20.10
2017-10-12T07:43:43.838Z,19.60
2017-10-12T07:46:14.130Z,18.10
2017-10-12T07:48:43.301Z,17.63
2017-10-12T07:51:12.489Z,14.27
2017-10-12T07:53:42.772Z,18.80
2017-10-12T07:56:11.957Z,20.20
2017-10-12T07:58:40.960Z,15.53
2017-10-12T08:01:10.430Z,15.10
2017-10-12T08:03:39.619Z,16.83
2017-10-12T08:06:08.826Z,21.53
2017-10-12T08:08:38.011Z,17.47
2017-10-12T08:11:07.188Z,17.90
2017-10-12T08:13:36.380Z,19.93
2017-10-12T08:16:07.014Z,20.60
2017-10-12T08:18:36.193Z,28.77
2017-10-12T08:21:05.379Z,21.07
2017-10-12T08:23:35.352Z,17.90
2017-10-12T08:26:04.521Z,18.33
2017-10-12T08:28:33.708Z,18.63
2017-10-12T08:31:03.089Z,16.83
2017-10-12T08:33:32.275Z,14.57
2017-10-12T08:36:01.467Z,13.73
2017-10-12T08:38:30.673Z,19.37
2017-10-12T08:41:00.634Z,22.47
2017-10-12T08:43:29.878Z,13.97
2017-10-12T08:45:59.072Z,15.70
2017-10-12T08:48:28.269Z,16.87
2017-10-12T08:50:57.447Z,18.97
2017-10-12T08:53:26.937Z,16.77
2017-10-12T08:55:56.109Z,24.67
2017-10-12T08:58:25.292Z,16.23
2017-10-12T09:00:54.495Z,20.00
2017-10-12T09:03:23.677Z,18.13
2017-10-12T09:05:52.861Z,15.10
2017-10-12T09:08:22.065Z,13.93
2017-10-12T09:10:51.253Z,16.17
2017-10-12T09:13:20.433Z,15.50
2017-10-12T09:15:50.716Z,16.67
2017-10-12T09:18:19.904Z,15.90
2017-10-12T09:20:49.103Z,15.10
2017-10-12T09:23:18.257Z,15.63
2017-10-12T09:25:46.742Z,17.17
2017-10-12T09:28:15.339Z,10.57
2017-10-12T09:30:45.030Z,12.70
2017-10-12T09:33:14.073Z,14.20
2017-10-12T09:35:42.577Z,15.70
2017-10-12T09:38:11.668Z,18.93
2017-10-12T09:40:40.705Z,12.23
2017-10-12T09:43:10.079Z,12.63
2017-10-12T09:45:39.503Z,14.10
2017-10-12T09:48:08.538Z,15.93
2017-10-12T09:50:37.925Z,14.40
2017-10-12T09:53:06.629Z,14.90
2017-10-12T09:55:35.324Z,11.33
2017-10-12T09:58:04.748Z,13.07
2017-10-12T10:00:34.155Z,13.57
2017-10-12T10:03:03.014Z,10.70
2017-10-12T10:05:33.168Z,12.13
2017-10-12T10:08:03.222Z,13.87
2017-10-12T10:10:32.590Z,8.63
2017-10-12T10:13:03.654Z,14.30
2017-10-12T10:15:34.481Z,16.80
2017-10-12T10:18:04.622Z,12.23
2017-10-12T10:20:34.781Z,9.03
2017-10-12T10:23:04.178Z,13.13
2017-10-12T10:25:34.330Z,11.97
2017-10-12T10:28:03.529Z,13.47
2017-10-12T10:30:32.724Z,13.20
2017-10-12T10:33:02.229Z,14.83
2017-10-12T10:35:32.204Z,13.47
2017-10-12T10:38:01.398Z,12.80
2017-10-12T10:40:30.817Z,11.97
2017-10-12T10:43:00.203Z,9.30
2017-10-12T10:45:30.387Z,10.33
2017-10-12T10:47:59.766Z,11.63
2017-10-12T10:50:29.156Z,10.57
2017-10-12T10:52:59.616Z,12.07
2017-10-12T10:55:28.817Z,9.33
2017-10-12T10:58:00.995Z,8.47
2017-10-12T11:00:30.948Z,12.87
2017-10-12T11:03:00.164Z,10.00
2017-10-12T11:05:29.916Z,10.53
2017-10-12T11:07:59.112Z,9.43
2017-10-12T11:10:29.923Z,8.80
2017-10-12T11:13:00.081Z,9.20
2017-10-12T11:15:29.466Z,7.23
2017-10-12T11:17:59.626Z,15.57
2017-10-12T11:20:29.322Z,6.73
2017-10-12T11:22:58.530Z,12.17
2017-10-12T11:25:28.510Z,8.50
2017-10-12T11:27:58.237Z,10.77
2017-10-12T11:30:27.625Z,12.70
2017-10-12T11:32:57.015Z,7.33
2017-10-12T11:35:26.682Z,11.07
2017-10-12T11:37:56.057Z,9.20
2017-10-12T11:40:25.433Z,9.83
2017-10-12T11:42:54.821Z,9.93
2017-10-12T11:45:24.193Z,11.23
2017-10-12T11:47:53.569Z,11.43
2017-10-12T11:50:23.169Z,11.20
2017-10-12T11:52:52.553Z,11.80
2017-10-12T11:55:21.766Z,13.13
2017-10-12T11:57:51.511Z,8.77
2017-10-12T12:00:20.894Z,10.23
2017-10-12T12:02:50.278Z,14.53
2017-10-12T12:05:20.446Z,12.20
2017-10-12T12:07:49.841Z,9.23
2017-10-12T12:10:19.827Z,11.10
2017-10-12T12:12:49.027Z,14.13
2017-10-12T12:15:18.405Z,9.17
2017-10-12T12:17:47.779Z,7.40
2017-10-12T12:20:17.180Z,8.00
2017-10-12T12:22:46.563Z,9.17
2017-10-12T12:25:15.751Z,11.73
2017-10-12T12:27:45.306Z,10.40
2017-10-12T12:30:14.738Z,7.70
2017-10-12T12:32:44.293Z,8.63
2017-10-12T12:35:14.453Z,13.13
2017-10-12T12:37:43.856Z,11.50
2017-10-12T12:40:13.315Z,6.63
2017-10-12T12:42:44.167Z,8.80
2017-10-12T12:45:13.538Z,7.77
2017-10-12T12:47:42.809Z,6.63
2017-10-12T12:50:14.028Z,11.03
2017-10-12T12:52:43.402Z,7.27
2017-10-12T12:55:13.702Z,10.23
2017-10-12T12:57:43.413Z,6.47
2017-10-12T13:00:12.773Z,10.20
2017-10-12T13:02:42.951Z,13.93
2017-10-12T13:05:12.356Z,8.47
2017-10-12T13:07:41.726Z,9.57
2017-10-12T13:10:11.618Z,8.03
2017-10-12T13:12:40.998Z,16.53
2017-10-12T13:15:10.376Z,8.93
2017-10-12T13:17:40.187Z,9.73
2017-10-12T13:20:09.562Z,6.90
2017-10-12T13:22:38.945Z,8.03
2017-10-12T13:25:09.385Z,7.40
2017-10-12T13:27:39.546Z,8.33
2017-10-12T13:30:08.937Z,10.67
2017-10-12T13:32:39.104Z,6.40
2017-10-12T13:35:08.487Z,6.97
2017-10-12T13:37:38.649Z,15.90
2017-10-12T13:40:08.390Z,11.00
2017-10-12T13:42:37.786Z,5.57
2017-10-12T13:45:07.182Z,5.07
2017-10-12T13:47:36.624Z,4.30
2017-10-12T13:50:06.011Z,6.57
2017-10-12T13:52:34.697Z,7.50
2017-10-12T13:55:03.899Z,4.60
2017-10-12T13:57:33.274Z,6.73
2017-10-12T14:00:02.306Z,4.47
2017-10-12T14:02:31.781Z,3.43
2017-10-12T14:05:01.178Z,6.17
2017-10-12T14:07:30.586Z,4.47
2017-10-12T14:10:00.139Z,7.83
2017-10-12T14:12:29.328Z,6.33
2017-10-12T14:14:58.512Z,7.00
2017-10-12T14:17:28.502Z,5.07
2017-10-12T14:19:58.123Z,6.07
2017-10-12T14:22:27.497Z,6.53
2017-10-12T14:24:56.903Z,9.53
2017-10-12T14:27:26.273Z,8.83
2017-10-12T14:29:55.666Z,7.73
2017-10-12T14:32:27.157Z,7.07
2017-10-12T14:34:56.542Z,7.93
2017-10-12T14:37:25.933Z,5.27
2017-10-12T14:39:55.348Z,11.23
2017-10-12T14:42:24.541Z,8.07
2017-10-12T14:44:54.691Z,6.80
2017-10-12T14:47:24.094Z,8.57
2017-10-12T14:49:53.556Z,6.97
2017-10-12T14:52:22.940Z,5.07
2017-10-12T14:54:52.701Z,4.90
2017-10-12T14:57:22.087Z,6.47
2017-10-12T14:59:51.258Z,5.43
2017-10-12T15:02:21.790Z,7.30
2017-10-12T15:04:50.977Z,7.07
2017-10-12T15:07:20.261Z,4.17
2017-10-12T15:09:49.658Z,6.73
2017-10-12T15:12:19.021Z,5.20
2017-10-12T15:14:48.410Z,5.13
2017-10-12T15:17:18.113Z,4.97
2017-10-12T15:19:47.498Z,6.70
2017-10-12T15:22:17.665Z,4.97
2017-10-12T15:24:47.422Z,9.13
2017-10-12T15:27:16.607Z,3.93
2017-10-12T15:29:45.802Z,3.77
2017-10-12T15:32:15.462Z,3.27
2017-10-12T15:34:44.856Z,7.40
2017-10-12T15:37:14.222Z,4.80
2017-10-12T15:39:43.878Z,7.97
2017-10-12T15:42:13.258Z,3.63
2017-10-12T15:44:42.630Z,6.47
2017-10-12T15:47:12.144Z,6.53
2017-10-12T15:49:41.562Z,4.03
2017-10-12T15:52:10.946Z,5.47
2017-10-12T15:54:40.702Z,7.67
2017-10-12T15:57:10.075Z,7.83
2017-10-12T15:59:40.233Z,4.73
2017-10-12T16:02:09.613Z,5.20
2017-10-12T16:04:39.782Z,7.07
2017-10-12T16:07:09.171Z,5.07
2017-10-12T16:09:38.562Z,5.63
2017-10-12T16:12:07.957Z,6.07
2017-10-12T16:14:37.398Z,3.80
2017-10-12T16:17:07.557Z,4.87
2017-10-12T16:19:37.740Z,3.93
2017-10-12T16:22:07.126Z,5.27
2017-10-12T16:24:36.518Z,4.73
2017-10-12T16:27:06.274Z,6.60
2017-10-12T16:29:35.708Z,5.00
2017-10-12T16:32:05.157Z,7.37
2017-10-12T16:34:35.308Z,5.10
2017-10-12T16:37:04.502Z,6.23
2017-10-12T16:39:34.487Z,4.83
2017-10-12T16:42:03.716Z,6.27
2017-10-12T16:44:33.112Z,8.17
2017-10-12T16:47:02.481Z,6.27
2017-10-12T16:49:31.718Z,4.27
2017-10-12T16:52:01.117Z,8.53
2017-10-12T16:54:31.274Z,7.53
2017-10-12T16:57:00.675Z,6.83
2017-10-12T16:59:30.133Z,10.33
2017-10-12T17:01:59.521Z,7.73
2017-10-12T17:04:29.260Z,14.33
2017-10-12T17:06:58.744Z,10.60
2017-10-12T17:09:28.124Z,10.37
2017-10-12T17:11:58.681Z,5.73
2017-10-12T17:14:27.946Z,10.03
2017-10-12T17:16:57.342Z,7.73
2017-10-12T17:19:27.671Z,6.43
2017-10-12T17:21:56.860Z,6.70
2017-10-12T17:24:26.258Z,9.93
2017-10-12T17:26:56.757Z,11.60
2017-10-12T17:29:26.147Z,12.17
2017-10-12T17:31:55.570Z,7.37
2017-10-12T17:34:25.318Z,14.30
2017-10-12T17:36:54.729Z,8.37
2017-10-12T17:39:24.354Z,11.00
2017-10-12T17:41:53.558Z,10.00
2017-10-12T17:44:22.957Z,17.43
2017-10-12T17:46:52.419Z,6.23
2017-10-12T17:49:22.715Z,9.43
2017-10-12T17:51:51.904Z,5.73
2017-10-12T17:54:36.150Z,10.00
2017-10-12T17:56:51.457Z,9.47
2017-10-12T17:59:20.633Z,9.03
2017-10-12T18:01:50.194Z,8.40
2017-10-12T18:04:49.171Z,16.97
2017-10-12T18:06:49.041Z,9.63
2017-10-12T18:09:18.418Z,8.60
2017-10-12T18:14:17.516Z,12.40
2017-10-12T18:16:46.895Z,11.40
2017-10-12T18:19:16.331Z,11.17
2017-10-12T18:21:47.335Z,10.40
2017-10-12T18:24:16.791Z,13.13
2017-10-12T18:26:46.182Z,21.20
2017-10-12T18:29:16.937Z,12.23
2017-10-12T18:31:46.313Z,15.47
2017-10-12T18:34:15.698Z,13.67
2017-10-12T18:36:45.869Z,8.67
2017-10-12T18:39:15.262Z,12.90
2017-10-12T18:41:45.433Z,13.63
2017-10-12T18:44:15.199Z,17.27
2017-10-12T18:46:45.354Z,12.73
2017-10-12T18:49:15.835Z,7.03
2017-10-12T18:51:45.218Z,10.93
2017-10-12T18:54:15.025Z,10.87
2017-10-12T18:56:45.316Z,17.03
2017-10-12T18:59:14.706Z,12.27
2017-10-12T19:01:44.094Z,12.20
2017-10-12T19:04:14.558Z,12.93
2017-10-12T19:06:43.949Z,13.43
2017-10-12T19:09:13.333Z,9.97
2017-10-12T19:11:42.989Z,10.73
2017-10-12T19:14:12.369Z,13.60
2017-10-12T19:16:41.766Z,15.17
2017-10-12T19:19:11.718Z,19.20
2017-10-12T19:21:41.057Z,13.40
2017-10-12T19:24:11.035Z,17.13
2017-10-12T19:26:40.427Z,12.77
2017-10-12T19:29:09.618Z,19.33
2017-10-12T19:31:38.302Z,13.07
2017-10-12T19:34:08.048Z,17.63
2017-10-12T19:36:37.280Z,17.73
2017-10-12T19:39:06.650Z,14.00
2017-10-12T19:41:36.824Z,19.80
2017-10-12T19:44:06.231Z,14.70
2017-10-12T19:46:35.613Z,13.23
2017-10-12T19:49:06.149Z,17.47
2017-10-12T19:51:36.310Z,12.93
2017-10-12T19:54:05.709Z,18.37
2017-10-12T19:56:35.469Z,14.17
2017-10-12T19:59:04.906Z,15.67
2017-10-12T20:01:34.308Z,21.43
2017-10-12T20:04:04.142Z,13.47
2017-10-12T20:06:33.526Z,15.63
2017-10-12T20:09:02.728Z,18.57
2017-10-12T20:11:32.139Z,18.23
2017-10-12T20:16:31.738Z,17.90
2017-10-12T20:19:01.149Z,14.23
2017-10-12T20:21:30.522Z,15.77
2017-10-12T20:26:29.404Z,16.77
2017-10-12T20:33:59.147Z,16.33
2017-10-12T20:36:28.566Z,16.43
2017-10-12T20:38:58.073Z,18.27
2017-10-12T20:41:27.857Z,22.27
2017-10-12T20:43:57.254Z,19.07
2017-10-12T20:46:26.652Z,19.00
2017-10-12T20:48:56.317Z,21.33
2017-10-12T20:51:26.482Z,19.20
2017-10-12T20:53:56.561Z,25.27
2017-10-12T20:56:26.121Z,22.47
2017-10-12T20:58:56.625Z,21.67
2017-10-12T21:01:25.999Z,18.17
2017-10-12T21:03:55.396Z,24.03
2017-10-12T21:06:24.807Z,25.63
2017-10-12T21:08:54.263Z,23.33
2017-10-12T21:11:23.669Z,23.27
2017-10-12T21:13:53.421Z,25.23
2017-10-12T21:16:22.813Z,27.30
2017-10-12T21:18:52.202Z,25.27
2017-10-12T21:21:21.964Z,19.50
2017-10-12T21:23:51.396Z,18.23
2017-10-12T21:26:21.057Z,21.53
2017-10-12T21:28:50.829Z,28.20
2017-10-12T21:31:20.227Z,22.47
2017-10-12T21:33:49.601Z,24.50
2017-10-12T21:36:19.293Z,19.13
2017-10-12T21:38:48.683Z,23.77
2017-10-12T21:41:18.073Z,27.03
2017-10-12T21:43:47.810Z,24.47
2017-10-12T21:46:17.194Z,22.10
2017-10-12T21:48:47.353Z,22.37
2017-10-12T21:51:17.093Z,24.67
2017-10-12T21:53:46.468Z,24.00
2017-10-12T21:56:15.871Z,26.80
2017-10-12T21:58:46.678Z,30.67
2017-10-12T22:01:16.049Z,23.73
2017-10-12T22:03:45.458Z,26.70
2017-10-12T22:06:15.177Z,33.43
2017-10-12T22:08:45.340Z,27.70
2017-10-12T22:11:14.725Z,29.80
2017-10-12T22:13:44.489Z,27.43
2017-10-12T22:16:13.905Z,24.60
2017-10-12T22:18:43.286Z,29.97
2017-10-12T22:21:12.954Z,30.13
2017-10-12T22:23:42.333Z,30.40
2017-10-12T22:26:11.717Z,30.73
2017-10-12T22:28:42.229Z,26.97
2017-10-12T22:31:11.679Z,23.23
2017-10-12T22:33:41.852Z,20.80
2017-10-12T22:36:11.561Z,26.00
2017-10-12T22:38:40.946Z,21.83
2017-10-12T22:41:10.762Z,23.43
2017-10-12T22:43:41.270Z,28.70
2017-10-12T22:46:10.652Z,28.27
2017-10-12T22:48:40.053Z,22.60
2017-10-12T22:51:10.022Z,20.87
2017-10-12T22:53:39.406Z,24.37
2017-10-12T22:56:08.791Z,24.63
2017-10-12T22:58:39.287Z,21.20
2017-10-12T23:01:08.701Z,19.93
2017-10-12T23:03:37.875Z,17.37
2017-10-12T23:06:07.629Z,20.07
2017-10-12T23:08:37.017Z,25.93
2017-10-12T23:11:06.396Z,20.73
2017-10-12T23:13:36.827Z,18.23
2017-10-12T23:16:05.998Z,27.73
2017-10-12T23:18:35.181Z,25.93
2017-10-12T23:21:05.265Z,23.53
2017-10-12T23:23:34.461Z,24.63
2017-10-12T23:26:03.847Z,22.83
2017-10-12T23:28:33.600Z,19.40
2017-10-12T23:31:02.983Z,24.10
2017-10-12T23:33:32.353Z,26.97
2017-10-12T23:36:02.049Z,24.27
2017-10-12T23:38:31.237Z,28.27
2017-10-12T23:41:00.729Z,22.37
2017-10-12T23:43:32.036Z,30.23
2017-10-12T23:46:01.401Z,23.57
2017-10-12T23:48:31.566Z,24.00
2017-10-12T23:51:01.312Z,23.03
2017-10-12T23:53:30.688Z,21.27
2017-10-12T23:56:00.090Z,24.63
2017-10-12T23:58:30.558Z,29.60
